sensor_id;sensor_type;location;lat;lon;timestamp;pressure;altitude;pressure_sealevel;temperature;humidity
71964;BME280;59834;52.124;5.422;2023-04-06T00:00:48;101916.66;;;2.25;77.52
71964;BME280;59834;52.124;5.422;2023-04-06T00:03:15;101909.75;;;2.24;77.29
71964;BME280;59834;52.124;5.422;2023-04-06T00:05:42;101913.22;;;2.23;77.81
71964;BME280;59834;52.124;5.422;2023-04-06T00:08:08;101907.25;;;2.20;77.99
71964;BME280;59834;52.124;5.422;2023-04-06T00:10:35;101909.84;;;2.17;77.31
71964;BME280;59834;52.124;5.422;2023-04-06T00:13:02;101909.91;;;2.15;77.56
71964;BME280;59834;52.124;5.422;2023-04-06T00:15:28;101909.00;;;2.15;78.16
71964;BME280;59834;52.124;5.422;2023-04-06T00:17:55;101905.56;;;2.14;77.36
71964;BME280;59834;52.124;5.422;2023-04-06T00:20:22;101904.75;;;2.12;77.84
71964;BME280;59834;52.124;5.422;2023-04-06T00:22:48;101905.72;;;2.05;77.97
71964;BME280;59834;52.124;5.422;2023-04-06T00:25:16;101900.59;;;1.99;77.67
71964;BME280;59834;52.124;5.422;2023-04-06T00:27:42;101892.81;;;2.00;78.09
71964;BME280;59834;52.124;5.422;2023-04-06T00:30:09;101890.28;;;1.97;77.99
71964;BME280;59834;52.124;5.422;2023-04-06T00:32:36;101887.72;;;1.96;78.12
71964;BME280;59834;52.124;5.422;2023-04-06T00:35:04;101889.47;;;1.95;77.93
71964;BME280;59834;52.124;5.422;2023-04-06T00:37:31;101889.47;;;1.92;78.30
71964;BME280;59834;52.124;5.422;2023-04-06T00:39:58;101887.78;;;1.89;78.37
71964;BME280;59834;52.124;5.422;2023-04-06T00:42:24;101876.59;;;1.89;79.28
71964;BME280;59834;52.124;5.422;2023-04-06T00:44:53;101883.50;;;1.87;78.24
71964;BME280;59834;52.124;5.422;2023-04-06T00:47:21;101874.97;;;1.80;78.68
71964;BME280;59834;52.124;5.422;2023-04-06T00:49:48;101869.84;;;1.79;78.24
71964;BME280;59834;52.124;5.422;2023-04-06T00:52:15;101863.81;;;1.77;79.05
71964;BME280;59834;52.124;5.422;2023-04-06T00:54:42;101860.41;;;1.75;77.98
71964;BME280;59834;52.124;5.422;2023-04-06T00:57:10;101864.75;;;1.71;78.14
71964;BME280;59834;52.124;5.422;2023-04-06T00:59:37;101864.75;;;1.70;78.78
71964;BME280;59834;52.124;5.422;2023-04-06T01:02:04;101863.91;;;1.69;79.15
71964;BME280;59834;52.124;5.422;2023-04-06T01:04:31;101859.63;;;1.68;78.44
71964;BME280;59834;52.124;5.422;2023-04-06T01:06:58;101856.19;;;1.66;78.96
71964;BME280;59834;52.124;5.422;2023-04-06T01:09:28;101854.50;;;1.65;79.16
71964;BME280;59834;52.124;5.422;2023-04-06T01:11:58;101851.88;;;1.68;80.12
71964;BME280;59834;52.124;5.422;2023-04-06T01:14:25;101846.72;;;1.68;79.34
71964;BME280;59834;52.124;5.422;2023-04-06T01:16:52;101844.97;;;1.72;80.18
71964;BME280;59834;52.124;5.422;2023-04-06T01:19:19;101839.78;;;1.75;80.26
71964;BME280;59834;52.124;5.422;2023-04-06T01:21:46;101840.63;;;1.75;80.39
71964;BME280;59834;52.124;5.422;2023-04-06T01:24:15;101834.59;;;1.75;79.68
71964;BME280;59834;52.124;5.422;2023-04-06T01:26:43;101837.13;;;1.79;79.76
71964;BME280;59834;52.124;5.422;2023-04-06T01:29:10;101834.50;;;1.81;79.83
71964;BME280;59834;52.124;5.422;2023-04-06T01:31:37;101837.09;;;1.82;79.36
71964;BME280;59834;52.124;5.422;2023-04-06T01:34:04;101834.47;;;1.85;79.47
71964;BME280;59834;52.124;5.422;2023-04-06T01:36:31;101828.44;;;1.86;79.34
71964;BME280;59834;52.124;5.422;2023-04-06T01:38:57;101828.44;;;1.86;79.67
71964;BME280;59834;52.124;5.422;2023-04-06T01:41:24;101821.59;;;1.82;80.97
71964;BME280;59834;52.124;5.422;2023-04-06T01:43:51;101819.88;;;1.83;79.90
71964;BME280;59834;52.124;5.422;2023-04-06T01:46:20;101816.44;;;1.82;81.04
71964;BME280;59834;52.124;5.422;2023-04-06T01:48:47;101812.97;;;1.83;80.68
71964;BME280;59834;52.124;5.422;2023-04-06T01:51:13;101811.25;;;1.85;81.25
71964;BME280;59834;52.124;5.422;2023-04-06T01:53:40;101810.38;;;1.88;81.11
71964;BME280;59834;52.124;5.422;2023-04-06T01:56:08;101803.47;;;1.88;80.26
71964;BME280;59834;52.124;5.422;2023-04-06T01:58:34;101805.22;;;1.85;81.35
71964;BME280;59834;52.124;5.422;2023-04-06T02:01:02;101806.09;;;1.85;80.73
71964;BME280;59834;52.124;5.422;2023-04-06T02:03:28;101796.56;;;1.87;81.08
71964;BME280;59834;52.124;5.422;2023-04-06T02:05:55;101791.44;;;1.86;80.89
71964;BME280;59834;52.124;5.422;2023-04-06T02:08:21;101789.72;;;1.86;80.77
71964;BME280;59834;52.124;5.422;2023-04-06T02:10:48;101791.41;;;1.87;81.22
71964;BME280;59834;52.124;5.422;2023-04-06T02:13:14;101782.00;;;1.85;81.27
71964;BME280;59834;52.124;5.422;2023-04-06T02:15:41;101785.38;;;1.90;81.71
71964;BME280;59834;52.124;5.422;2023-04-06T02:18:07;101780.16;;;1.93;81.92
71964;BME280;59834;52.124;5.422;2023-04-06T02:20:34;101774.06;;;1.97;80.97
71964;BME280;59834;52.124;5.422;2023-04-06T02:23:00;101774.94;;;1.99;81.06
71964;BME280;59834;52.124;5.422;2023-04-06T02:25:27;101766.28;;;2.02;81.16
71964;BME280;59834;52.124;5.422;2023-04-06T02:27:54;101762.78;;;2.06;80.86
71964;BME280;59834;52.124;5.422;2023-04-06T02:30:20;101762.72;;;2.12;80.28
71964;BME280;59834;52.124;5.422;2023-04-06T02:32:47;101768.72;;;2.12;80.62
71964;BME280;59834;52.124;5.422;2023-04-06T02:35:13;101769.63;;;2.11;80.74
71964;BME280;59834;52.124;5.422;2023-04-06T02:37:39;101766.09;;;2.14;80.12
71964;BME280;59834;52.124;5.422;2023-04-06T02:40:06;101766.97;;;2.15;79.92
71964;BME280;59834;52.124;5.422;2023-04-06T02:42:33;101768.66;;;2.17;79.58
71964;BME280;59834;52.124;5.422;2023-04-06T02:45:01;101760.06;;;2.17;79.20
71964;BME280;59834;52.124;5.422;2023-04-06T02:47:27;101752.22;;;2.21;79.04
71964;BME280;59834;52.124;5.422;2023-04-06T02:49:54;101747.06;;;2.21;78.86
71964;BME280;59834;52.124;5.422;2023-04-06T02:52:20;101749.66;;;2.21;79.12
71964;BME280;59834;52.124;5.422;2023-04-06T02:54:47;101737.63;;;2.22;78.80
71964;BME280;59834;52.124;5.422;2023-04-06T02:57:13;101731.56;;;2.23;78.93
71964;BME280;59834;52.124;5.422;2023-04-06T02:59:40;101740.16;;;2.23;78.43
71964;BME280;59834;52.124;5.422;2023-04-06T03:02:06;101739.28;;;2.24;78.00
71964;BME280;59834;52.124;5.422;2023-04-06T03:04:33;101735.00;;;2.23;77.78
71964;BME280;59834;52.124;5.422;2023-04-06T03:06:59;101729.81;;;2.23;78.43
71964;BME280;59834;52.124;5.422;2023-04-06T03:09:26;101728.94;;;2.26;78.77
71964;BME280;59834;52.124;5.422;2023-04-06T03:11:53;101723.78;;;2.26;78.76
71964;BME280;59834;52.124;5.422;2023-04-06T03:14:19;101728.91;;;2.27;78.37
71964;BME280;59834;52.124;5.422;2023-04-06T03:16:49;101726.31;;;2.29;78.70
71964;BME280;59834;52.124;5.422;2023-04-06T03:19:15;101725.44;;;2.30;78.59
71964;BME280;59834;52.124;5.422;2023-04-06T03:21:42;101717.66;;;2.31;78.82
71964;BME280;59834;52.124;5.422;2023-04-06T03:24:08;101717.66;;;2.31;78.14
71964;BME280;59834;52.124;5.422;2023-04-06T03:26:35;101718.47;;;2.33;78.73
71964;BME280;59834;52.124;5.422;2023-04-06T03:29:01;101721.06;;;2.33;78.68
71964;BME280;59834;52.124;5.422;2023-04-06T03:31:28;101716.75;;;2.34;78.70
71964;BME280;59834;52.124;5.422;2023-04-06T03:33:54;101714.16;;;2.35;78.51
71964;BME280;59834;52.124;5.422;2023-04-06T03:36:21;101712.38;;;2.38;78.80
71964;BME280;59834;52.124;5.422;2023-04-06T03:38:47;101714.06;;;2.42;78.50
71964;BME280;59834;52.124;5.422;2023-04-06T03:41:14;101711.44;;;2.43;77.44
71964;BME280;59834;52.124;5.422;2023-04-06T03:43:41;101713.13;;;2.46;77.75
71964;BME280;59834;52.124;5.422;2023-04-06T03:46:07;101711.34;;;2.48;77.50
71964;BME280;59834;52.124;5.422;2023-04-06T03:48:33;101705.34;;;2.49;77.21
71964;BME280;59834;52.124;5.422;2023-04-06T03:51:00;101710.47;;;2.52;77.05
71964;BME280;59834;52.124;5.422;2023-04-06T03:53:26;101703.50;;;2.54;77.44
71964;BME280;59834;52.124;5.422;2023-04-06T03:55:53;101706.94;;;2.56;77.70
71964;BME280;59834;52.124;5.422;2023-04-06T03:58:19;101698.28;;;2.57;77.24
71964;BME280;59834;52.124;5.422;2023-04-06T04:00:46;101696.59;;;2.56;76.71
71964;BME280;59834;52.124;5.422;2023-04-06T04:03:12;101700.06;;;2.55;77.15
71964;BME280;59834;52.124;5.422;2023-04-06T04:05:39;101699.19;;;2.54;77.17
71964;BME280;59834;52.124;5.422;2023-04-06T04:08:05;101697.53;;;2.50;77.38
71964;BME280;59834;52.124;5.422;2023-04-06T04:10:31;101699.38;;;2.45;77.69
71964;BME280;59834;52.124;5.422;2023-04-06T04:12:58;101695.91;;;2.45;77.69
71964;BME280;59834;52.124;5.422;2023-04-06T04:15:24;101700.25;;;2.43;78.40
71964;BME280;59834;52.124;5.422;2023-04-06T04:17:51;101692.50;;;2.41;77.84
71964;BME280;59834;52.124;5.422;2023-04-06T04:20:18;101698.59;;;2.39;77.28
71964;BME280;59834;52.124;5.422;2023-04-06T04:22:44;101692.59;;;2.36;78.22
71964;BME280;59834;52.124;5.422;2023-04-06T04:25:11;101695.19;;;2.36;77.35
71964;BME280;59834;52.124;5.422;2023-04-06T04:27:37;101690.91;;;2.34;78.05
71964;BME280;59834;52.124;5.422;2023-04-06T04:30:05;101696.13;;;2.32;77.94
71964;BME280;59834;52.124;5.422;2023-04-06T04:32:31;101697.84;;;2.30;78.91
71964;BME280;59834;52.124;5.422;2023-04-06T04:34:58;101697.03;;;2.28;78.59
71964;BME280;59834;52.124;5.422;2023-04-06T04:37:24;101692.78;;;2.24;78.98
71964;BME280;59834;52.124;5.422;2023-04-06T04:39:51;101688.50;;;2.23;78.23
71964;BME280;59834;52.124;5.422;2023-04-06T04:42:18;101699.72;;;2.22;78.55
71964;BME280;59834;52.124;5.422;2023-04-06T04:44:44;101690.25;;;2.21;78.05
71964;BME280;59834;52.124;5.422;2023-04-06T04:47:11;101691.97;;;2.21;78.18
71964;BME280;59834;52.124;5.422;2023-04-06T04:49:37;101692.00;;;2.19;78.77
71964;BME280;59834;52.124;5.422;2023-04-06T04:52:03;101690.31;;;2.18;77.91
71964;BME280;59834;52.124;5.422;2023-04-06T04:54:30;101695.41;;;2.23;78.55
71964;BME280;59834;52.124;5.422;2023-04-06T04:56:56;101694.50;;;2.25;78.24
71964;BME280;59834;52.124;5.422;2023-04-06T04:59:23;101694.47;;;2.28;78.19
71964;BME280;59834;52.124;5.422;2023-04-06T05:01:49;101691.84;;;2.31;78.63
71964;BME280;59834;52.124;5.422;2023-04-06T05:04:20;101689.13;;;2.38;77.71
71964;BME280;59834;52.124;5.422;2023-04-06T05:06:47;101689.06;;;2.42;76.88
71964;BME280;59834;52.124;5.422;2023-04-06T05:09:13;101682.97;;;2.45;77.77
71964;BME280;59834;52.124;5.422;2023-04-06T05:11:40;101683.78;;;2.50;76.87
71964;BME280;59834;52.124;5.422;2023-04-06T05:14:06;101682.84;;;2.54;77.51
71964;BME280;59834;52.124;5.422;2023-04-06T05:16:34;101677.56;;;2.60;77.50
71964;BME280;59834;52.124;5.422;2023-04-06T05:19:01;101686.97;;;2.66;77.33
71964;BME280;59834;52.124;5.422;2023-04-06T05:21:28;101675.63;;;2.73;76.41
71964;BME280;59834;52.124;5.422;2023-04-06T05:23:54;101677.19;;;2.81;76.80
71964;BME280;59834;52.124;5.422;2023-04-06T05:26:21;101683.03;;;2.91;76.63
71964;BME280;59834;52.124;5.422;2023-04-06T05:28:47;101679.47;;;2.98;76.07
71964;BME280;59834;52.124;5.422;2023-04-06T05:31:14;101677.63;;;3.05;75.67
71964;BME280;59834;52.124;5.422;2023-04-06T05:33:43;101673.19;;;3.12;76.07
71964;BME280;59834;52.124;5.422;2023-04-06T05:36:09;101672.22;;;3.19;75.40
71964;BME280;59834;52.124;5.422;2023-04-06T05:38:39;101674.66;;;3.25;75.92
71964;BME280;59834;52.124;5.422;2023-04-06T05:41:06;101677.97;;;3.31;75.28
71964;BME280;59834;52.124;5.422;2023-04-06T05:43:32;101674.41;;;3.39;75.17
71964;BME280;59834;52.124;5.422;2023-04-06T05:45:59;101675.09;;;3.45;75.32
71964;BME280;59834;52.124;5.422;2023-04-06T05:48:25;101664.59;;;3.53;74.98
71964;BME280;59834;52.124;5.422;2023-04-06T05:50:52;101665.28;;;3.61;75.26
71964;BME280;59834;52.124;5.422;2023-04-06T05:53:19;101662.44;;;3.73;74.59
71964;BME280;59834;52.124;5.422;2023-04-06T05:55:47;101658.00;;;3.78;75.06
71964;BME280;59834;52.124;5.422;2023-04-06T05:58:13;101654.50;;;3.81;75.17
71964;BME280;59834;52.124;5.422;2023-04-06T06:00:40;101658.69;;;3.87;74.98
71964;BME280;59834;52.124;5.422;2023-04-06T06:03:09;101660.91;;;4.39;74.91
71964;BME280;59834;52.124;5.422;2023-04-06T06:05:35;101655.25;;;5.23;72.25
71964;BME280;59834;52.124;5.422;2023-04-06T06:08:02;101658.03;;;5.15;70.99
71964;BME280;59834;52.124;5.422;2023-04-06T06:10:28;101670.00;;;4.90;71.38
71964;BME280;59834;52.124;5.422;2023-04-06T06:12:55;101655.97;;;4.64;71.93
71964;BME280;59834;52.124;5.422;2023-04-06T06:15:22;101652.72;;;4.56;72.68
71964;BME280;59834;52.124;5.422;2023-04-06T06:17:48;101657.72;;;4.62;73.76
71964;BME280;59834;52.124;5.422;2023-04-06T06:20:15;101654.22;;;4.65;73.55
71964;BME280;59834;52.124;5.422;2023-04-06T06:22:41;101652.66;;;4.58;73.28
71964;BME280;59834;52.124;5.422;2023-04-06T06:25:08;101660.66;;;4.48;73.39
71964;BME280;59834;52.124;5.422;2023-04-06T06:27:35;101655.69;;;4.41;73.59
71964;BME280;59834;52.124;5.422;2023-04-06T06:30:02;101659.25;;;4.35;75.14
71964;BME280;59834;52.124;5.422;2023-04-06T06:32:29;101652.44;;;4.33;73.96
71964;BME280;59834;52.124;5.422;2023-04-06T06:34:55;101655.03;;;4.33;73.93
71964;BME280;59834;52.124;5.422;2023-04-06T06:37:22;101656.66;;;4.37;74.33
71964;BME280;59834;52.124;5.422;2023-04-06T06:39:48;101659.97;;;4.42;74.14
71964;BME280;59834;52.124;5.422;2023-04-06T06:42:15;101653.75;;;4.49;73.79
71964;BME280;59834;52.124;5.422;2023-04-06T06:44:41;101658.69;;;4.58;73.85
71964;BME280;59834;52.124;5.422;2023-04-06T06:47:07;101657.50;;;4.71;73.58
71964;BME280;59834;52.124;5.422;2023-04-06T06:49:34;101654.50;;;4.87;73.52
71964;BME280;59834;52.124;5.422;2023-04-06T06:52:01;101644.53;;;5.04;72.96
71964;BME280;59834;52.124;5.422;2023-04-06T06:54:28;101652.84;;;5.15;72.41
71964;BME280;59834;52.124;5.422;2023-04-06T06:56:54;101654.97;;;5.32;72.02
71964;BME280;59834;52.124;5.422;2023-04-06T06:59:21;101653.78;;;5.44;72.42
71964;BME280;59834;52.124;5.422;2023-04-06T07:01:49;101643.09;;;5.53;72.01
71964;BME280;59834;52.124;5.422;2023-04-06T07:04:16;101644.59;;;5.62;71.63
71964;BME280;59834;52.124;5.422;2023-04-06T07:06:42;101650.28;;;5.75;71.22
71964;BME280;59834;52.124;5.422;2023-04-06T07:09:09;101644.06;;;5.79;70.58
71964;BME280;59834;52.124;5.422;2023-04-06T07:11:36;101636.25;;;5.80;69.74
71964;BME280;59834;52.124;5.422;2023-04-06T07:14:02;101639.88;;;5.75;69.46
71964;BME280;59834;52.124;5.422;2023-04-06T07:16:29;101635.69;;;5.71;67.44
71964;BME280;59834;52.124;5.422;2023-04-06T07:18:56;101631.44;;;5.66;67.65
71964;BME280;59834;52.124;5.422;2023-04-06T07:21:23;101632.41;;;5.64;67.49
71964;BME280;59834;52.124;5.422;2023-04-06T07:23:49;101626.41;;;5.62;67.36
71964;BME280;59834;52.124;5.422;2023-04-06T07:26:17;101624.75;;;5.59;68.04
71964;BME280;59834;52.124;5.422;2023-04-06T07:28:43;101625.66;;;5.58;67.02
71964;BME280;59834;52.124;5.422;2023-04-06T07:31:10;101629.16;;;5.57;67.57
71964;BME280;59834;52.124;5.422;2023-04-06T07:33:36;101628.25;;;5.58;67.69
71964;BME280;59834;52.124;5.422;2023-04-06T07:36:03;101627.41;;;5.58;67.37
71964;BME280;59834;52.124;5.422;2023-04-06T07:38:30;101631.66;;;5.60;67.10
71964;BME280;59834;52.124;5.422;2023-04-06T07:40:56;101629.84;;;5.62;67.26
71964;BME280;59834;52.124;5.422;2023-04-06T07:43:23;101634.94;;;5.67;67.15
71964;BME280;59834;52.124;5.422;2023-04-06T07:45:50;101636.47;;;5.73;67.87
71964;BME280;59834;52.124;5.422;2023-04-06T07:48:16;101635.47;;;5.77;67.33
71964;BME280;59834;52.124;5.422;2023-04-06T07:50:43;101625.88;;;5.80;67.87
71964;BME280;59834;52.124;5.422;2023-04-06T07:53:09;101636.00;;;5.88;67.55
71964;BME280;59834;52.124;5.422;2023-04-06T07:55:36;101631.59;;;5.90;66.97
71964;BME280;59834;52.124;5.422;2023-04-06T07:58:03;101633.16;;;5.97;67.34
71964;BME280;59834;52.124;5.422;2023-04-06T08:00:30;101633.75;;;6.05;67.00
71964;BME280;59834;52.124;5.422;2023-04-06T08:02:56;101634.47;;;6.10;66.61
71964;BME280;59834;52.124;5.422;2023-04-06T08:05:23;101635.91;;;6.19;66.36
71964;BME280;59834;52.124;5.422;2023-04-06T08:07:49;101635.66;;;6.27;66.56
71964;BME280;59834;52.124;5.422;2023-04-06T08:10:16;101634.50;;;6.35;65.65
71964;BME280;59834;52.124;5.422;2023-04-06T08:12:42;101636.66;;;6.49;66.00
71964;BME280;59834;52.124;5.422;2023-04-06T08:15:09;101631.97;;;6.59;66.43
71964;BME280;59834;52.124;5.422;2023-04-06T08:17:36;101633.47;;;6.66;65.37
71964;BME280;59834;52.124;5.422;2023-04-06T08:20:03;101631.72;;;6.67;65.95
71964;BME280;59834;52.124;5.422;2023-04-06T08:22:30;101629.22;;;6.64;65.12
71964;BME280;59834;52.124;5.422;2023-04-06T08:24:56;101623.81;;;6.70;65.62
71964;BME280;59834;52.124;5.422;2023-04-06T08:27:23;101627.94;;;6.75;65.30
71964;BME280;59834;52.124;5.422;2023-04-06T08:29:49;101626.91;;;6.81;65.95
71964;BME280;59834;52.124;5.422;2023-04-06T08:32:16;101622.44;;;6.84;65.93
71964;BME280;59834;52.124;5.422;2023-04-06T08:34:42;101626.63;;;6.89;67.02
71964;BME280;59834;52.124;5.422;2023-04-06T08:37:09;101624.53;;;6.98;66.17
71964;BME280;59834;52.124;5.422;2023-04-06T08:39:35;101619.16;;;7.03;65.54
71964;BME280;59834;52.124;5.422;2023-04-06T08:42:02;101616.53;;;7.04;65.10
71964;BME280;59834;52.124;5.422;2023-04-06T08:44:30;101620.00;;;7.03;65.56
71964;BME280;59834;52.124;5.422;2023-04-06T08:46:59;101621.38;;;7.14;65.91
71964;BME280;59834;52.124;5.422;2023-04-06T08:49:27;101624.59;;;7.20;65.25
71964;BME280;59834;52.124;5.422;2023-04-06T08:51:55;101621.44;;;7.36;65.83
71964;BME280;59834;52.124;5.422;2023-04-06T08:54:21;101614.91;;;7.47;65.33
71964;BME280;59834;52.124;5.422;2023-04-06T08:56:48;101617.22;;;7.55;65.08
71964;BME280;59834;52.124;5.422;2023-04-06T08:59:15;101618.72;;;7.61;65.09
71964;BME280;59834;52.124;5.422;2023-04-06T09:01:42;101623.59;;;7.70;64.33
71964;BME280;59834;52.124;5.422;2023-04-06T09:04:12;101621.56;;;7.78;64.01
71964;BME280;59834;52.124;5.422;2023-04-06T09:06:39;101618.88;;;7.79;64.44
71964;BME280;59834;52.124;5.422;2023-04-06T09:09:07;101616.50;;;7.95;64.48
71964;BME280;59834;52.124;5.422;2023-04-06T09:11:48;101619.28;;;8.13;63.71
71964;BME280;59834;52.124;5.422;2023-04-06T09:14:15;101626.06;;;8.17;63.44
71964;BME280;59834;52.124;5.422;2023-04-06T09:16:45;101620.41;;;8.27;63.53
71964;BME280;59834;52.124;5.422;2023-04-06T09:19:12;101627.00;;;8.36;63.52
71964;BME280;59834;52.124;5.422;2023-04-06T09:21:39;101620.44;;;8.48;63.00
71964;BME280;59834;52.124;5.422;2023-04-06T09:24:08;101623.25;;;8.64;63.21
71964;BME280;59834;52.124;5.422;2023-04-06T09:26:46;101620.88;;;8.59;62.80
71964;BME280;59834;52.124;5.422;2023-04-06T09:29:25;101619.88;;;8.62;62.68
71964;BME280;59834;52.124;5.422;2023-04-06T09:32:05;101616.09;;;8.69;62.75
71964;BME280;59834;52.124;5.422;2023-04-06T09:34:33;101614.69;;;8.81;63.05
71964;BME280;59834;52.124;5.422;2023-04-06T09:37:00;101613.84;;;8.80;62.28
71964;BME280;59834;52.124;5.422;2023-04-06T09:39:37;101615.69;;;8.78;62.45
71964;BME280;59834;52.124;5.422;2023-04-06T09:42:04;101606.81;;;8.82;62.71
71964;BME280;59834;52.124;5.422;2023-04-06T09:44:30;101612.03;;;8.82;62.77
71964;BME280;59834;52.124;5.422;2023-04-06T09:46:57;101624.50;;;8.76;62.25
71964;BME280;59834;52.124;5.422;2023-04-06T09:49:27;101616.59;;;8.77;62.47
71964;BME280;59834;52.124;5.422;2023-04-06T09:52:06;101625.84;;;8.84;63.29
71964;BME280;59834;52.124;5.422;2023-04-06T09:54:34;101613.91;;;8.99;63.50
71964;BME280;59834;52.124;5.422;2023-04-06T09:57:17;101615.75;;;9.16;64.02
71964;BME280;59834;52.124;5.422;2023-04-06T10:02:45;101614.63;;;9.03;65.08
71964;BME280;59834;52.124;5.422;2023-04-06T10:05:35;101610.25;;;9.03;66.51
71964;BME280;59834;52.124;5.422;2023-04-06T10:08:07;101613.84;;;9.19;66.93
71964;BME280;59834;52.124;5.422;2023-04-06T10:10:35;101610.09;;;9.25;67.09
71964;BME280;59834;52.124;5.422;2023-04-06T10:13:02;101620.84;;;9.19;66.41
71964;BME280;59834;52.124;5.422;2023-04-06T10:15:30;101616.75;;;9.13;66.31
71964;BME280;59834;52.124;5.422;2023-04-06T10:17:58;101625.16;;;9.20;68.15
71964;BME280;59834;52.124;5.422;2023-04-06T10:20:33;101618.59;;;9.30;66.92
71964;BME280;59834;52.124;5.422;2023-04-06T10:23:07;101623.94;;;9.27;68.19
71964;BME280;59834;52.124;5.422;2023-04-06T10:25:34;101627.22;;;9.32;69.20
71964;BME280;59834;52.124;5.422;2023-04-06T10:28:05;101622.97;;;9.30;68.81
71964;BME280;59834;52.124;5.422;2023-04-06T10:30:41;101620.97;;;9.35;68.83
71964;BME280;59834;52.124;5.422;2023-04-06T10:33:18;101616.81;;;9.31;69.94
71964;BME280;59834;52.124;5.422;2023-04-06T10:35:45;101607.91;;;9.35;70.09
71964;BME280;59834;52.124;5.422;2023-04-06T10:38:11;101607.78;;;9.19;71.51
71964;BME280;59834;52.124;5.422;2023-04-06T10:40:41;101616.16;;;9.07;72.88
71964;BME280;59834;52.124;5.422;2023-04-06T10:43:20;101619.19;;;8.97;73.64
71964;BME280;59834;52.124;5.422;2023-04-06T10:45:57;101606.94;;;8.79;75.69
71964;BME280;59834;52.124;5.422;2023-04-06T10:48:24;101615.03;;;8.73;77.33
71964;BME280;59834;52.124;5.422;2023-04-06T10:50:52;101614.25;;;8.71;78.63
71964;BME280;59834;52.124;5.422;2023-04-06T10:53:26;101615.88;;;8.73;79.00
71964;BME280;59834;52.124;5.422;2023-04-06T10:55:55;101614.38;;;8.68;79.74
71964;BME280;59834;52.124;5.422;2023-04-06T10:58:26;101615.50;;;8.62;80.64
71964;BME280;59834;52.124;5.422;2023-04-06T11:00:54;101606.44;;;8.50;79.57
71964;BME280;59834;52.124;5.422;2023-04-06T11:03:21;101606.16;;;8.36;81.47
71964;BME280;59834;52.124;5.422;2023-04-06T11:05:49;101615.06;;;8.31;82.58
71964;BME280;59834;52.124;5.422;2023-04-06T11:08:27;101610.22;;;8.43;82.98
71964;BME280;59834;52.124;5.422;2023-04-06T11:11:09;101596.91;;;8.49;82.71
71964;BME280;59834;52.124;5.422;2023-04-06T11:13:48;101603.38;;;8.41;83.92
71964;BME280;59834;52.124;5.422;2023-04-06T11:16:23;101610.94;;;8.47;84.26
71964;BME280;59834;52.124;5.422;2023-04-06T11:19:00;101602.19;;;8.48;84.77
71964;BME280;59834;52.124;5.422;2023-04-06T11:21:41;101600.38;;;8.50;85.06
71964;BME280;59834;52.124;5.422;2023-04-06T11:24:20;101603.06;;;8.48;84.82
71964;BME280;59834;52.124;5.422;2023-04-06T11:29:17;101595.88;;;8.54;85.24
71964;BME280;59834;52.124;5.422;2023-04-06T11:31:59;101595.16;;;8.50;83.79
71964;BME280;59834;52.124;5.422;2023-04-06T11:34:29;101598.28;;;8.58;85.39
71964;BME280;59834;52.124;5.422;2023-04-06T11:36:57;101583.00;;;8.69;85.73
71964;BME280;59834;52.124;5.422;2023-04-06T11:39:26;101595.72;;;8.77;84.68
71964;BME280;59834;52.124;5.422;2023-04-06T11:41:57;101587.38;;;8.69;85.38
71964;BME280;59834;52.124;5.422;2023-04-06T11:47:10;101571.78;;;8.67;84.52
71964;BME280;59834;52.124;5.422;2023-04-06T11:49:38;101575.19;;;8.69;84.31
71964;BME280;59834;52.124;5.422;2023-04-06T11:52:15;101567.13;;;8.74;84.05
71964;BME280;59834;52.124;5.422;2023-04-06T11:54:42;101566.38;;;8.72;83.74
71964;BME280;59834;52.124;5.422;2023-04-06T11:57:09;101562.63;;;8.78;84.18
71964;BME280;59834;52.124;5.422;2023-04-06T11:59:35;101562.00;;;8.91;84.26
71964;BME280;59834;52.124;5.422;2023-04-06T12:02:03;101570.63;;;8.93;82.79
71964;BME280;59834;52.124;5.422;2023-04-06T12:04:30;101557.59;;;8.93;83.38
71964;BME280;59834;52.124;5.422;2023-04-06T12:06:57;101568.72;;;8.97;84.51
71964;BME280;59834;52.124;5.422;2023-04-06T12:09:24;101558.28;;;8.97;84.52
71964;BME280;59834;52.124;5.422;2023-04-06T12:11:51;101557.94;;;9.05;84.02
71964;BME280;59834;52.124;5.422;2023-04-06T12:14:18;101558.19;;;8.98;83.77
71964;BME280;59834;52.124;5.422;2023-04-06T12:16:45;101559.53;;;8.88;84.56
71964;BME280;59834;52.124;5.422;2023-04-06T12:19:12;101552.63;;;8.87;84.36
71964;BME280;59834;52.124;5.422;2023-04-06T12:21:38;101557.00;;;8.87;84.92
71964;BME280;59834;52.124;5.422;2023-04-06T12:24:05;101541.50;;;9.03;85.44
71964;BME280;59834;52.124;5.422;2023-04-06T12:26:33;101544.88;;;9.05;84.91
71964;BME280;59834;52.124;5.422;2023-04-06T12:29:00;101548.81;;;8.94;85.00
71964;BME280;59834;52.124;5.422;2023-04-06T12:31:34;101543.69;;;8.93;85.60
71964;BME280;59834;52.124;5.422;2023-04-06T12:34:02;101539.22;;;8.95;85.53
71964;BME280;59834;52.124;5.422;2023-04-06T12:36:29;101545.94;;;9.01;86.66
71964;BME280;59834;52.124;5.422;2023-04-06T12:38:57;101546.47;;;8.88;85.92
71964;BME280;59834;52.124;5.422;2023-04-06T12:41:27;101539.22;;;8.76;84.88
71964;BME280;59834;52.124;5.422;2023-04-06T12:43:54;101538.16;;;8.80;86.54
71964;BME280;59834;52.124;5.422;2023-04-06T12:46:20;101538.03;;;8.83;86.59
71964;BME280;59834;52.124;5.422;2023-04-06T12:48:47;101537.66;;;8.72;86.03
71964;BME280;59834;52.124;5.422;2023-04-06T12:51:14;101540.47;;;8.67;87.17
71964;BME280;59834;52.124;5.422;2023-04-06T12:53:41;101535.47;;;8.63;87.03
71964;BME280;59834;52.124;5.422;2023-04-06T12:56:15;101524.19;;;8.62;87.20
71964;BME280;59834;52.124;5.422;2023-04-06T12:58:44;101524.81;;;8.67;86.92
71964;BME280;59834;52.124;5.422;2023-04-06T13:01:11;101527.16;;;8.73;87.42
71964;BME280;59834;52.124;5.422;2023-04-06T13:03:42;101523.56;;;8.76;86.97
71964;BME280;59834;52.124;5.422;2023-04-06T13:06:09;101516.50;;;8.78;86.22
71964;BME280;59834;52.124;5.422;2023-04-06T13:08:37;101518.00;;;8.84;86.66
71964;BME280;59834;52.124;5.422;2023-04-06T13:11:04;101515.38;;;8.84;86.57